sensor_id;sensor_type;location;lat;lon;timestamp;pressure;altitude;pressure_sealevel;temperature;humidity
10460;BME280;54412;51.206;6.888;2023-07-20T00:01:23;100667.28;;;20.59;61.24
10460;BME280;54412;51.206;6.888;2023-07-20T00:03:49;100667.28;;;20.59;61.05
10460;BME280;54412;51.206;6.888;2023-07-20T00:06:21;100673.47;;;20.60;61.51
10460;BME280;54412;51.206;6.888;2023-07-20T00:08:47;100668.69;;;20.54;61.54
10460;BME280;54412;51.206;6.888;2023-07-20T00:11:13;100655.22;;;20.35;62.36
10460;BME280;54412;51.206;6.888;2023-07-20T00:13:40;100660.31;;;20.28;62.69
10460;BME280;54412;51.206;6.888;2023-07-20T00:16:05;100657.34;;;20.22;62.98
10460;BME280;54412;51.206;6.888;2023-07-20T00:18:31;100657.34;;;20.31;62.10
10460;BME280;54412;51.206;6.888;2023-07-20T00:20:57;100657.94;;;20.44;61.58
10460;BME280;54412;51.206;6.888;2023-07-20T00:23:22;100659.31;;;20.20;62.45
10460;BME280;54412;51.206;6.888;2023-07-20T00:25:49;100658.75;;;20.35;61.79
10460;BME280;54412;51.206;6.888;2023-07-20T00:28:14;100666.63;;;20.18;62.74
10460;BME280;54412;51.206;6.888;2023-07-20T00:30:40;100668.91;;;20.32;62.13
10460;BME280;54412;51.206;6.888;2023-07-20T00:33:10;100659.63;;;20.36;61.80
10460;BME280;54412;51.206;6.888;2023-07-20T00:35:36;100660.63;;;20.05;63.01
10460;BME280;54412;51.206;6.888;2023-07-20T00:38:03;100660.84;;;20.22;62.58
10460;BME280;54412;51.206;6.888;2023-07-20T00:40:39;100655.41;;;20.43;62.03
10460;BME280;54412;51.206;6.888;2023-07-20T00:43:05;100663.72;;;20.40;62.10
10460;BME280;54412;51.206;6.888;2023-07-20T00:45:32;100650.44;;;20.29;62.25
10460;BME280;54412;51.206;6.888;2023-07-20T00:48:00;100653.25;;;20.37;62.00
10460;BME280;54412;51.206;6.888;2023-07-20T00:50:28;100663.56;;;20.32;62.04
10460;BME280;54412;51.206;6.888;2023-07-20T00:52:55;100658.47;;;20.29;62.11
10460;BME280;54412;51.206;6.888;2023-07-20T00:55:22;100658.63;;;20.27;62.23
10460;BME280;54412;51.206;6.888;2023-07-20T00:57:49;100657.91;;;20.35;62.39
10460;BME280;54412;51.206;6.888;2023-07-20T01:00:16;100663.44;;;20.43;62.24
10460;BME280;54412;51.206;6.888;2023-07-20T01:02:42;100663.00;;;20.47;61.81
10460;BME280;54412;51.206;6.888;2023-07-20T01:05:09;100665.13;;;20.34;62.11
10460;BME280;54412;51.206;6.888;2023-07-20T01:07:40;100672.59;;;20.40;62.18
10460;BME280;54412;51.206;6.888;2023-07-20T01:10:24;100676.66;;;20.35;62.17
10460;BME280;54412;51.206;6.888;2023-07-20T01:12:52;100665.03;;;20.15;63.07
10460;BME280;54412;51.206;6.888;2023-07-20T01:15:18;100658.69;;;20.16;63.89
10460;BME280;54412;51.206;6.888;2023-07-20T01:17:45;100664.81;;;20.18;64.60
10460;BME280;54412;51.206;6.888;2023-07-20T01:20:15;100664.94;;;20.26;64.84
10460;BME280;54412;51.206;6.888;2023-07-20T01:29:32;100667.47;;;20.18;64.63
10460;BME280;54412;51.206;6.888;2023-07-20T01:32:08;100651.88;;;20.03;65.63
10460;BME280;54412;51.206;6.888;2023-07-20T01:34:36;100660.47;;;20.06;65.76
10460;BME280;54412;51.206;6.888;2023-07-20T01:37:03;100660.47;;;20.06;66.21
10460;BME280;54412;51.206;6.888;2023-07-20T01:39:30;100657.44;;;20.20;66.19
10460;BME280;54412;51.206;6.888;2023-07-20T01:41:57;100653.72;;;20.12;66.40
10460;BME280;54412;51.206;6.888;2023-07-20T01:44:23;100655.69;;;20.00;66.71
10460;BME280;54412;51.206;6.888;2023-07-20T01:46:49;100656.03;;;20.16;65.78
10460;BME280;54412;51.206;6.888;2023-07-20T01:49:14;100659.09;;;20.12;66.48
10460;BME280;54412;51.206;6.888;2023-07-20T01:51:41;100652.25;;;20.19;65.95
10460;BME280;54412;51.206;6.888;2023-07-20T01:54:06;100655.13;;;20.06;66.36
10460;BME280;54412;51.206;6.888;2023-07-20T01:56:32;100659.66;;;20.15;66.70
10460;BME280;54412;51.206;6.888;2023-07-20T01:58:57;100651.84;;;20.23;65.76
10460;BME280;54412;51.206;6.888;2023-07-20T02:01:23;100642.47;;;20.08;66.08
10460;BME280;54412;51.206;6.888;2023-07-20T02:03:49;100653.56;;;20.34;65.58
10460;BME280;54412;51.206;6.888;2023-07-20T02:06:14;100652.38;;;20.17;65.88
10460;BME280;54412;51.206;6.888;2023-07-20T02:08:40;100650.19;;;20.11;66.23
10460;BME280;54412;51.206;6.888;2023-07-20T02:11:06;100651.78;;;20.14;66.23
10460;BME280;54412;51.206;6.888;2023-07-20T02:13:32;100650.56;;;19.88;66.49
10460;BME280;54412;51.206;6.888;2023-07-20T02:15:57;100637.19;;;19.97;66.02
10460;BME280;54412;51.206;6.888;2023-07-20T02:18:23;100635.84;;;20.12;66.17
10460;BME280;54412;51.206;6.888;2023-07-20T02:20:48;100638.06;;;19.98;65.73
10460;BME280;54412;51.206;6.888;2023-07-20T02:23:14;100633.56;;;19.98;65.88
10460;BME280;54412;51.206;6.888;2023-07-20T02:25:40;100644.84;;;20.02;66.55
10460;BME280;54412;51.206;6.888;2023-07-20T02:28:07;100631.50;;;19.81;66.81
10460;BME280;54412;51.206;6.888;2023-07-20T02:30:38;100638.34;;;19.95;66.04
10460;BME280;54412;51.206;6.888;2023-07-20T02:33:05;100642.94;;;19.83;66.98
10460;BME280;54412;51.206;6.888;2023-07-20T02:35:32;100646.75;;;19.90;66.82
10460;BME280;54412;51.206;6.888;2023-07-20T02:37:58;100645.09;;;19.89;67.07
10460;BME280;54412;51.206;6.888;2023-07-20T02:40:23;100658.72;;;19.86;66.66
10460;BME280;54412;51.206;6.888;2023-07-20T02:42:49;100649.03;;;19.95;66.26
10460;BME280;54412;51.206;6.888;2023-07-20T02:45:15;100648.34;;;19.93;66.32
10460;BME280;54412;51.206;6.888;2023-07-20T02:47:41;100654.13;;;19.98;66.33
10460;BME280;54412;51.206;6.888;2023-07-20T02:50:08;100660.91;;;20.02;66.59
10460;BME280;54412;51.206;6.888;2023-07-20T02:52:34;100655.94;;;19.97;66.20
10460;BME280;54412;51.206;6.888;2023-07-20T02:54:59;100663.91;;;19.78;66.97
10460;BME280;54412;51.206;6.888;2023-07-20T02:57:26;100648.66;;;19.69;66.98
10460;BME280;54412;51.206;6.888;2023-07-20T02:59:52;100649.16;;;19.84;66.85
10460;BME280;54412;51.206;6.888;2023-07-20T03:02:18;100659.19;;;19.91;66.77
10460;BME280;54412;51.206;6.888;2023-07-20T03:04:43;100651.50;;;19.77;67.13
10460;BME280;54412;51.206;6.888;2023-07-20T03:07:09;100660.81;;;19.83;66.71
10460;BME280;54412;51.206;6.888;2023-07-20T03:09:35;100652.53;;;19.86;66.78
10460;BME280;54412;51.206;6.888;2023-07-20T03:12:01;100645.88;;;19.80;66.88
10460;BME280;54412;51.206;6.888;2023-07-20T03:14:27;100660.50;;;19.76;66.91
10460;BME280;54412;51.206;6.888;2023-07-20T03:16:53;100655.69;;;19.70;67.39
10460;BME280;54412;51.206;6.888;2023-07-20T03:19:19;100655.59;;;19.71;67.19
10460;BME280;54412;51.206;6.888;2023-07-20T03:21:44;100665.78;;;19.57;67.40
10460;BME280;54412;51.206;6.888;2023-07-20T03:24:10;100658.34;;;19.60;67.76
10460;BME280;54412;51.206;6.888;2023-07-20T03:26:36;100658.06;;;19.63;67.81
10460;BME280;54412;51.206;6.888;2023-07-20T03:29:03;100659.81;;;19.74;67.44
10460;BME280;54412;51.206;6.888;2023-07-20T03:31:29;100660.16;;;19.60;67.69
10460;BME280;54412;51.206;6.888;2023-07-20T03:33:55;100664.44;;;19.72;67.17
10460;BME280;54412;51.206;6.888;2023-07-20T03:36:20;100665.78;;;19.57;67.61
10460;BME280;54412;51.206;6.888;2023-07-20T03:38:47;100663.94;;;19.57;67.68
10460;BME280;54412;51.206;6.888;2023-07-20T03:41:12;100662.63;;;19.52;68.03
10460;BME280;54412;51.206;6.888;2023-07-20T03:43:38;100661.00;;;19.60;67.51
10460;BME280;54412;51.206;6.888;2023-07-20T03:46:04;100666.50;;;19.59;67.91
10460;BME280;54412;51.206;6.888;2023-07-20T03:48:33;100672.28;;;19.64;67.78
10460;BME280;54412;51.206;6.888;2023-07-20T03:50:59;100670.66;;;19.52;68.02
10460;BME280;54412;51.206;6.888;2023-07-20T03:53:26;100672.69;;;19.59;67.71
10460;BME280;54412;51.206;6.888;2023-07-20T03:55:55;100677.59;;;19.54;68.33
10460;BME280;54412;51.206;6.888;2023-07-20T03:58:21;100682.28;;;19.41;68.77
10460;BME280;54412;51.206;6.888;2023-07-20T04:00:49;100679.03;;;19.38;68.99
10460;BME280;54412;51.206;6.888;2023-07-20T04:03:19;100682.94;;;19.34;69.14
10460;BME280;54412;51.206;6.888;2023-07-20T04:05:45;100688.56;;;19.51;68.94
10460;BME280;54412;51.206;6.888;2023-07-20T04:08:11;100687.25;;;19.46;68.45
10460;BME280;54412;51.206;6.888;2023-07-20T04:10:38;100691.94;;;19.33;69.24
10460;BME280;54412;51.206;6.888;2023-07-20T04:13:04;100688.91;;;19.37;69.00
10460;BME280;54412;51.206;6.888;2023-07-20T04:15:30;100686.22;;;19.37;69.33
10460;BME280;54412;51.206;6.888;2023-07-20T04:17:57;100680.47;;;19.62;68.15
10460;BME280;54412;51.206;6.888;2023-07-20T04:20:23;100687.91;;;19.59;68.55
10460;BME280;54412;51.206;6.888;2023-07-20T04:22:49;100693.44;;;19.67;68.05
10460;BME280;54412;51.206;6.888;2023-07-20T04:25:17;100686.72;;;19.52;68.25
10460;BME280;54412;51.206;6.888;2023-07-20T04:27:43;100686.59;;;19.53;68.65
10460;BME280;54412;51.206;6.888;2023-07-20T04:30:10;100694.56;;;19.44;69.22
10460;BME280;54412;51.206;6.888;2023-07-20T04:32:37;100687.19;;;19.57;68.41
10460;BME280;54412;51.206;6.888;2023-07-20T04:35:06;100695.09;;;19.68;67.74
10460;BME280;54412;51.206;6.888;2023-07-20T04:37:33;100692.25;;;19.60;68.60
10460;BME280;54412;51.206;6.888;2023-07-20T04:39:59;100701.72;;;19.64;68.48
10460;BME280;54412;51.206;6.888;2023-07-20T04:42:24;100690.75;;;19.67;68.25
10460;BME280;54412;51.206;6.888;2023-07-20T04:44:50;100697.78;;;19.68;68.52
10460;BME280;54412;51.206;6.888;2023-07-20T04:47:16;100695.88;;;19.79;67.88
10460;BME280;54412;51.206;6.888;2023-07-20T04:49:41;100700.00;;;19.63;69.01
10460;BME280;54412;51.206;6.888;2023-07-20T04:52:07;100702.63;;;19.74;68.54
10460;BME280;54412;51.206;6.888;2023-07-20T04:54:33;100706.91;;;19.86;68.00
10460;BME280;54412;51.206;6.888;2023-07-20T04:56:59;100711.88;;;19.91;68.15
10460;BME280;54412;51.206;6.888;2023-07-20T04:59:24;100704.72;;;20.01;67.43
10460;BME280;54412;51.206;6.888;2023-07-20T05:01:50;100709.56;;;19.86;67.73
10460;BME280;54412;51.206;6.888;2023-07-20T05:04:16;100701.00;;;19.92;67.91
10460;BME280;54412;51.206;6.888;2023-07-20T05:06:41;100702.41;;;19.87;67.83
10460;BME280;54412;51.206;6.888;2023-07-20T05:09:08;100700.34;;;20.00;67.59
10460;BME280;54412;51.206;6.888;2023-07-20T05:11:33;100710.63;;;20.04;67.40
10460;BME280;54412;51.206;6.888;2023-07-20T05:14:00;100705.19;;;20.15;67.29
10460;BME280;54412;51.206;6.888;2023-07-20T05:16:26;100713.31;;;20.25;66.88
10460;BME280;54412;51.206;6.888;2023-07-20T05:18:51;100712.63;;;20.02;67.41
10460;BME280;54412;51.206;6.888;2023-07-20T05:21:17;100713.38;;;20.14;67.13
10460;BME280;54412;51.206;6.888;2023-07-20T05:23:42;100712.72;;;20.21;67.14
10460;BME280;54412;51.206;6.888;2023-07-20T05:26:09;100710.53;;;20.06;67.46
10460;BME280;54412;51.206;6.888;2023-07-20T05:28:34;100712.25;;;20.16;67.22
10460;BME280;54412;51.206;6.888;2023-07-20T05:31:03;100713.59;;;20.31;66.58
10460;BME280;54412;51.206;6.888;2023-07-20T05:33:28;100716.28;;;20.01;67.79
10460;BME280;54412;51.206;6.888;2023-07-20T05:35:54;100713.91;;;20.08;67.41
10460;BME280;54412;51.206;6.888;2023-07-20T05:38:20;100712.41;;;20.15;67.47
10460;BME280;54412;51.206;6.888;2023-07-20T05:40:45;100712.34;;;20.35;66.78
10460;BME280;54412;51.206;6.888;2023-07-20T05:43:12;100718.38;;;20.18;67.55
10460;BME280;54412;51.206;6.888;2023-07-20T05:45:42;100710.19;;;20.20;67.79
10460;BME280;54412;51.206;6.888;2023-07-20T05:48:09;100711.19;;;20.28;67.32
10460;BME280;54412;51.206;6.888;2023-07-20T05:50:42;100709.53;;;20.37;67.49
10460;BME280;54412;51.206;6.888;2023-07-20T05:53:11;100724.41;;;20.20;67.23
10460;BME280;54412;51.206;6.888;2023-07-20T05:55:36;100723.47;;;20.31;66.78
10460;BME280;54412;51.206;6.888;2023-07-20T05:58:02;100726.44;;;20.37;66.53
10460;BME280;54412;51.206;6.888;2023-07-20T06:00:29;100722.25;;;20.44;66.74
10460;BME280;54412;51.206;6.888;2023-07-20T06:02:55;100720.53;;;20.34;67.14
10460;BME280;54412;51.206;6.888;2023-07-20T06:05:24;100727.13;;;20.30;66.57
10460;BME280;54412;51.206;6.888;2023-07-20T06:07:50;100729.38;;;20.25;67.06
10460;BME280;54412;51.206;6.888;2023-07-20T06:10:16;100734.72;;;20.25;67.01
10460;BME280;54412;51.206;6.888;2023-07-20T06:12:42;100733.81;;;20.54;65.88
10460;BME280;54412;51.206;6.888;2023-07-20T06:15:42;100733.53;;;20.48;65.87
10460;BME280;54412;51.206;6.888;2023-07-20T06:18:09;100741.28;;;20.41;66.22
10460;BME280;54412;51.206;6.888;2023-07-20T06:20:34;100746.06;;;20.47;65.53
10460;BME280;54412;51.206;6.888;2023-07-20T06:23:00;100736.97;;;20.59;65.30
10460;BME280;54412;51.206;6.888;2023-07-20T06:25:26;100740.34;;;20.61;65.24
10460;BME280;54412;51.206;6.888;2023-07-20T06:27:52;100750.19;;;20.51;65.73
10460;BME280;54412;51.206;6.888;2023-07-20T06:30:18;100748.25;;;20.72;65.13
10460;BME280;54412;51.206;6.888;2023-07-20T06:32:43;100744.59;;;20.73;65.13
10460;BME280;54412;51.206;6.888;2023-07-20T06:35:09;100749.38;;;20.70;64.63
10460;BME280;54412;51.206;6.888;2023-07-20T06:37:35;100749.41;;;20.89;63.44
10460;BME280;54412;51.206;6.888;2023-07-20T06:40:03;100746.84;;;20.78;64.22
10460;BME280;54412;51.206;6.888;2023-07-20T06:42:32;100746.88;;;20.88;63.79
10460;BME280;54412;51.206;6.888;2023-07-20T06:44:58;100746.44;;;20.83;63.89
10460;BME280;54412;51.206;6.888;2023-07-20T06:47:23;100742.34;;;20.78;63.82
10460;BME280;54412;51.206;6.888;2023-07-20T06:49:49;100743.34;;;20.87;63.54
10460;BME280;54412;51.206;6.888;2023-07-20T06:52:15;100742.88;;;20.72;63.61
10460;BME280;54412;51.206;6.888;2023-07-20T06:54:41;100747.56;;;20.70;63.79
10460;BME280;54412;51.206;6.888;2023-07-20T06:57:06;100748.44;;;20.90;63.03
10460;BME280;54412;51.206;6.888;2023-07-20T06:59:32;100754.53;;;21.02;62.24
10460;BME280;54412;51.206;6.888;2023-07-20T07:01:58;100755.69;;;20.99;62.39
10460;BME280;54412;51.206;6.888;2023-07-20T07:04:23;100754.00;;;21.17;61.98
10460;BME280;54412;51.206;6.888;2023-07-20T07:06:49;100752.00;;;21.29;60.96
10460;BME280;54412;51.206;6.888;2023-07-20T07:09:15;100762.75;;;21.10;61.82
10460;BME280;54412;51.206;6.888;2023-07-20T07:11:40;100763.28;;;21.32;61.34
10460;BME280;54412;51.206;6.888;2023-07-20T07:14:06;100756.09;;;21.42;60.84
10460;BME280;54412;51.206;6.888;2023-07-20T07:16:31;100759.75;;;21.32;61.00
10460;BME280;54412;51.206;6.888;2023-07-20T07:18:57;100761.59;;;21.22;61.19
10460;BME280;54412;51.206;6.888;2023-07-20T07:21:23;100763.72;;;21.47;60.62
10460;BME280;54412;51.206;6.888;2023-07-20T07:23:51;100766.13;;;21.40;60.49
10460;BME280;54412;51.206;6.888;2023-07-20T07:26:19;100772.72;;;21.55;60.46
10460;BME280;54412;51.206;6.888;2023-07-20T07:28:44;100772.03;;;21.63;59.76
10460;BME280;54412;51.206;6.888;2023-07-20T07:31:10;100771.06;;;21.64;60.12
10460;BME280;54412;51.206;6.888;2023-07-20T07:33:36;100763.84;;;21.45;60.14
10460;BME280;54412;51.206;6.888;2023-07-20T07:36:02;100772.59;;;21.57;60.00
10460;BME280;54412;51.206;6.888;2023-07-20T07:38:27;100767.66;;;21.43;60.15
10460;BME280;54412;51.206;6.888;2023-07-20T07:40:53;100770.94;;;21.37;60.18
10460;BME280;54412;51.206;6.888;2023-07-20T07:43:19;100776.28;;;21.46;60.10
10460;BME280;54412;51.206;6.888;2023-07-20T07:45:45;100779.78;;;21.95;57.63
10460;BME280;54412;51.206;6.888;2023-07-20T07:48:10;100784.94;;;22.06;57.09
10460;BME280;54412;51.206;6.888;2023-07-20T07:50:38;100792.59;;;22.01;57.18
10460;BME280;54412;51.206;6.888;2023-07-20T07:53:06;100792.34;;;21.94;57.09
10460;BME280;54412;51.206;6.888;2023-07-20T07:55:32;100792.34;;;21.75;56.59
10460;BME280;54412;51.206;6.888;2023-07-20T07:57:58;100791.09;;;21.50;57.29
10460;BME280;54412;51.206;6.888;2023-07-20T08:00:24;100787.28;;;21.82;56.84
10460;BME280;54412;51.206;6.888;2023-07-20T08:02:50;100786.84;;;21.96;56.41
10460;BME280;54412;51.206;6.888;2023-07-20T08:05:16;100798.28;;;21.98;56.44
10460;BME280;54412;51.206;6.888;2023-07-20T08:07:42;100787.69;;;22.33;55.90
10460;BME280;54412;51.206;6.888;2023-07-20T08:10:09;100800.22;;;22.51;54.78
10460;BME280;54412;51.206;6.888;2023-07-20T08:12:35;100792.72;;;22.45;54.44
10460;BME280;54412;51.206;6.888;2023-07-20T08:15:01;100797.34;;;22.26;54.83
10460;BME280;54412;51.206;6.888;2023-07-20T08:17:26;100798.31;;;21.78;55.97
10460;BME280;54412;51.206;6.888;2023-07-20T08:19:52;100806.50;;;21.67;56.53
10460;BME280;54412;51.206;6.888;2023-07-20T08:22:18;100801.81;;;21.69;56.08
10460;BME280;54412;51.206;6.888;2023-07-20T08:24:44;100806.34;;;21.98;56.21
10460;BME280;54412;51.206;6.888;2023-07-20T08:27:10;100797.78;;;22.21;55.09
10460;BME280;54412;51.206;6.888;2023-07-20T08:29:36;100808.13;;;22.62;53.43
10460;BME280;54412;51.206;6.888;2023-07-20T08:32:03;100801.84;;;22.71;52.61
10460;BME280;54412;51.206;6.888;2023-07-20T08:34:30;100798.28;;;22.71;53.00
10460;BME280;54412;51.206;6.888;2023-07-20T08:36:56;100799.03;;;22.91;52.31
10460;BME280;54412;51.206;6.888;2023-07-20T08:39:23;100801.63;;;22.83;53.10
10460;BME280;54412;51.206;6.888;2023-07-20T08:41:50;100801.47;;;23.29;52.19
10460;BME280;54412;51.206;6.888;2023-07-20T08:44:17;100804.59;;;23.24;51.73
10460;BME280;54412;51.206;6.888;2023-07-20T08:46:43;100809.44;;;23.21;51.75
10460;BME280;54412;51.206;6.888;2023-07-20T08:49:11;100803.88;;;23.05;51.88
10460;BME280;54412;51.206;6.888;2023-07-20T08:51:38;100814.31;;;22.90;52.80
10460;BME280;54412;51.206;6.888;2023-07-20T08:54:04;100815.88;;;22.65;53.30
10460;BME280;54412;51.206;6.888;2023-07-20T08:56:33;100811.78;;;22.61;53.40
10460;BME280;54412;51.206;6.888;2023-07-20T08:59:00;100807.03;;;22.46;53.90
10460;BME280;54412;51.206;6.888;2023-07-20T09:01:28;100810.03;;;22.33;54.59
10460;BME280;54412;51.206;6.888;2023-07-20T09:03:55;100813.69;;;22.42;53.46
10460;BME280;54412;51.206;6.888;2023-07-20T09:06:22;100817.56;;;22.30;54.05
10460;BME280;54412;51.206;6.888;2023-07-20T09:08:48;100805.41;;;22.26;53.28
10460;BME280;54412;51.206;6.888;2023-07-20T09:11:14;100812.47;;;22.27;53.52
10460;BME280;54412;51.206;6.888;2023-07-20T09:13:40;100810.41;;;22.48;53.53
10460;BME280;54412;51.206;6.888;2023-07-20T09:16:06;100812.03;;;22.95;51.78
10460;BME280;54412;51.206;6.888;2023-07-20T09:18:32;100807.06;;;23.18;51.05
10460;BME280;54412;51.206;6.888;2023-07-20T09:21:04;100811.22;;;23.30;50.87
10460;BME280;54412;51.206;6.888;2023-07-20T09:23:38;100807.38;;;23.50;50.50
10460;BME280;54412;51.206;6.888;2023-07-20T09:26:11;100803.16;;;23.65;48.70
10460;BME280;54412;51.206;6.888;2023-07-20T09:28:52;100806.00;;;23.89;48.05
10460;BME280;54412;51.206;6.888;2023-07-20T09:31:20;100808.94;;;23.96;47.77
10460;BME280;54412;51.206;6.888;2023-07-20T09:33:48;100808.78;;;23.97;47.34
10460;BME280;54412;51.206;6.888;2023-07-20T09:36:14;100800.50;;;24.16;47.19
10460;BME280;54412;51.206;6.888;2023-07-20T09:38:42;100791.47;;;24.25;45.84
10460;BME280;54412;51.206;6.888;2023-07-20T09:41:13;100802.38;;;24.16;46.66
10460;BME280;54412;51.206;6.888;2023-07-20T09:43:39;100805.19;;;24.14;46.96
10460;BME280;54412;51.206;6.888;2023-07-20T09:46:05;100799.94;;;24.30;46.72
10460;BME280;54412;51.206;6.888;2023-07-20T09:48:31;100801.63;;;24.31;46.15
10460;BME280;54412;51.206;6.888;2023-07-20T09:50:57;100796.75;;;24.35;45.21
10460;BME280;54412;51.206;6.888;2023-07-20T09:53:25;100793.59;;;24.47;45.85
10460;BME280;54412;51.206;6.888;2023-07-20T09:55:52;100796.47;;;24.79;44.63
10460;BME280;54412;51.206;6.888;2023-07-20T09:58:19;100798.44;;;24.69;45.01
10460;BME280;54412;51.206;6.888;2023-07-20T10:00:48;100793.75;;;24.79;44.48
10460;BME280;54412;51.206;6.888;2023-07-20T10:03:20;100796.84;;;24.93;44.49
10460;BME280;54412;51.206;6.888;2023-07-20T10:05:56;100794.19;;;24.67;44.23
10460;BME280;54412;51.206;6.888;2023-07-20T10:08:25;100801.25;;;24.60;44.61
10460;BME280;54412;51.206;6.888;2023-07-20T10:10:51;100796.16;;;24.23;44.89
10460;BME280;54412;51.206;6.888;2023-07-20T10:13:23;100799.81;;;23.71;45.91
10460;BME280;54412;51.206;6.888;2023-07-20T10:15:54;100801.03;;;23.51;47.01
10460;BME280;54412;51.206;6.888;2023-07-20T10:18:31;100797.31;;;23.52;46.44
10460;BME280;54412;51.206;6.888;2023-07-20T10:21:00;100796.47;;;23.69;46.80
10460;BME280;54412;51.206;6.888;2023-07-20T10:23:29;100788.84;;;23.64;45.67
10460;BME280;54412;51.206;6.888;2023-07-20T10:25:57;100789.91;;;23.97;44.58
10460;BME280;54412;51.206;6.888;2023-07-20T10:28:24;100801.97;;;24.11;44.56
10460;BME280;54412;51.206;6.888;2023-07-20T10:30:50;100791.75;;;24.48;43.67
10460;BME280;54412;51.206;6.888;2023-07-20T10:33:18;100784.97;;;24.77;42.87
10460;BME280;54412;51.206;6.888;2023-07-20T10:35:55;100791.50;;;25.17;42.27
10460;BME280;54412;51.206;6.888;2023-07-20T10:38:56;100788.91;;;24.99;41.40
10460;BME280;54412;51.206;6.888;2023-07-20T10:41:28;100784.91;;;25.19;42.21
10460;BME280;54412;51.206;6.888;2023-07-20T10:44:23;100783.56;;;24.65;43.59
10460;BME280;54412;51.206;6.888;2023-07-20T10:46:49;100783.91;;;24.62;43.69
10460;BME280;54412;51.206;6.888;2023-07-20T10:49:15;100779.78;;;24.42;44.78
10460;BME280;54412;51.206;6.888;2023-07-20T10:51:44;100775.84;;;24.70;43.58
10460;BME280;54412;51.206;6.888;2023-07-20T10:56:44;100773.13;;;25.20;40.74
10460;BME280;54412;51.206;6.888;2023-07-20T10:59:36;100766.56;;;25.31;41.06
10460;BME280;54412;51.206;6.888;2023-07-20T11:02:08;100773.50;;;25.49;39.81
10460;BME280;54412;51.206;6.888;2023-07-20T11:04:43;100764.53;;;25.73;40.14
10460;BME280;54412;51.206;6.888;2023-07-20T11:07:09;100765.06;;;25.44;40.44
10460;BME280;54412;51.206;6.888;2023-07-20T11:09:38;100761.47;;;25.20;41.93
10460;BME280;54412;51.206;6.888;2023-07-20T11:12:15;100763.16;;;25.13;40.93
10460;BME280;54412;51.206;6.888;2023-07-20T11:14:52;100767.81;;;24.78;42.57
10460;BME280;54412;51.206;6.888;2023-07-20T11:17:18;100763.94;;;24.97;40.66
10460;BME280;54412;51.206;6.888;2023-07-20T11:19:48;100758.56;;;24.97;39.98
10460;BME280;54412;51.206;6.888;2023-07-20T11:22:17;100766.00;;;24.53;40.93
10460;BME280;54412;51.206;6.888;2023-07-20T11:24:43;100756.25;;;24.68;39.29
10460;BME280;54412;51.206;6.888;2023-07-20T11:27:09;100753.16;;;24.39;40.73
10460;BME280;54412;51.206;6.888;2023-07-20T11:29:37;100760.97;;;24.58;42.02
10460;BME280;54412;51.206;6.888;2023-07-20T11:32:03;100755.22;;;24.61;42.36
10460;BME280;54412;51.206;6.888;2023-07-20T11:34:31;100762.09;;;24.48;41.77
10460;BME280;54412;51.206;6.888;2023-07-20T11:36:58;100756.53;;;24.49;41.60
10460;BME280;54412;51.206;6.888;2023-07-20T11:39:25;100752.31;;;24.80;39.92
10460;BME280;54412;51.206;6.888;2023-07-20T11:41:56;100749.78;;;24.87;40.70
10460;BME280;54412;51.206;6.888;2023-07-20T11:44:27;100751.16;;;25.07;40.20
10460;BME280;54412;51.206;6.888;2023-07-20T11:47:12;100753.84;;;25.15;39.69
10460;BME280;54412;51.206;6.888;2023-07-20T11:49:42;100748.13;;;25.02;38.53
10460;BME280;54412;51.206;6.888;2023-07-20T11:52:11;100738.16;;;24.95;39.55
10460;BME280;54412;51.206;6.888;2023-07-20T11:54:40;100745.19;;;24.79;39.79
10460;BME280;54412;51.206;6.888;2023-07-20T11:57:06;100743.88;;;24.83;39.71
10460;BME280;54412;51.206;6.888;2023-07-20T11:59:33;100743.69;;;24.85;40.15
10460;BME280;54412;51.206;6.888;2023-07-20T12:02:03;100740.19;;;24.93;40.72
10460;BME280;54412;51.206;6.888;2023-07-20T12:04:31;100741.03;;;25.17;40.65
10460;BME280;54412;51.206;6.888;2023-07-20T12:06:57;100733.28;;;25.22;39.99
10460;BME280;54412;51.206;6.888;2023-07-20T12:09:22;100735.50;;;25.27;40.50
10460;BME280;54412;51.206;6.888;2023-07-20T12:11:50;100736.47;;;24.94;41.22
10460;BME280;54412;51.206;6.888;2023-07-20T12:14:16;100737.81;;;24.90;41.10
10460;BME280;54412;51.206;6.888;2023-07-20T12:16:43;100730.75;;;24.97;40.95
10460;BME280;54412;51.206;6.888;2023-07-20T12:19:12;100735.53;;;24.69;40.52
10460;BME280;54412;51.206;6.888;2023-07-20T12:21:41;100739.47;;;24.74;38.81
10460;BME280;54412;51.206;6.888;2023-07-20T12:24:10;100732.75;;;24.45;40.48
10460;BME280;54412;51.206;6.888;2023-07-20T12:26:36;100740.13;;;24.35;40.99
10460;BME280;54412;51.206;6.888;2023-07-20T12:29:03;100742.34;;;24.39;39.83
10460;BME280;54412;51.206;6.888;2023-07-20T12:31:30;100734.53;;;24.70;39.50
10460;BME280;54412;51.206;6.888;2023-07-20T12:33:57;100729.56;;;24.91;39.27
10460;BME280;54412;51.206;6.888;2023-07-20T12:36:24;100732.28;;;25.15;37.98
10460;BME280;54412;51.206;6.888;2023-07-20T12:38:50;100722.94;;;24.77;37.48
10460;BME280;54412;51.206;6.888;2023-07-20T12:41:16;100723.88;;;24.68;38.34
10460;BME280;54412;51.206;6.888;2023-07-20T12:43:43;100729.44;;;25.17;39.02
10460;BME280;54412;51.206;6.888;2023-07-20T12:46:11;100736.38;;;25.59;37.31
10460;BME280;54412;51.206;6.888;2023-07-20T12:48:38;100725.56;;;25.43;37.00
10460;BME280;54412;51.206;6.888;2023-07-20T12:51:06;100726.66;;;24.84;36.68
10460;BME280;54412;51.206;6.888;2023-07-20T12:53:32;100725.38;;;24.63;37.05
10460;BME280;54412;51.206;6.888;2023-07-20T12:55:59;100725.16;;;24.48;38.50
10460;BME280;54412;51.206;6.888;2023-07-20T12:58:25;100718.44;;;24.52;39.01
10460;BME280;54412;51.206;6.888;2023-07-20T13:00:51;100721.09;;;24.78;38.51